createdAt,value
2019-03-20T00:01:20.014Z,102697.17
2019-03-20T00:03:49.382Z,102693.02
2019-03-20T00:06:19.029Z,102696.84
2019-03-20T00:08:48.726Z,102706.02
2019-03-20T00:11:18.259Z,102704.16
2019-03-20T00:13:47.616Z,102705.02
2019-03-20T00:16:16.973Z,102708.53
2019-03-20T00:18:46.625Z,102705.44
2019-03-20T00:21:15.976Z,102708.48
2019-03-20T00:26:41.403Z,102696.81
2019-03-20T00:29:11.070Z,102687.47
2019-03-20T00:31:41.527Z,102682.18
2019-03-20T00:34:11.066Z,102682.66
2019-03-20T00:36:41.348Z,102684.05
2019-03-20T00:39:11.012Z,102687.14
2019-03-20T00:41:41.392Z,102680.47
2019-03-20T00:44:11.048Z,102671.98
2019-03-20T00:46:41.490Z,102674.23
2019-03-20T00:49:11.056Z,102673.85
2019-03-20T00:52:00.815Z,102682.20
2019-03-20T00:54:30.183Z,102682.20
2019-03-20T00:57:11.909Z,102681.08
2019-03-20T00:59:41.583Z,102677.22
2019-03-20T01:02:11.123Z,102682.17
2019-03-20T01:04:41.513Z,102674.31
2019-03-20T01:07:11.308Z,102689.36
2019-03-20T01:09:41.518Z,102691.94
2019-03-20T01:12:11.157Z,102685.69
2019-03-20T01:14:41.543Z,102683.31
2019-03-20T01:17:11.333Z,102677.97
2019-03-20T01:19:41.519Z,102680.21
2019-03-20T01:22:11.152Z,102676.22
2019-03-20T01:24:41.447Z,102670.92
2019-03-20T01:27:10.803Z,102672.73
2019-03-20T01:29:41.648Z,102673.64
2019-03-20T01:32:11.224Z,102675.94
2019-03-20T01:34:41.527Z,102673.80
2019-03-20T01:37:11.960Z,102680.89
2019-03-20T01:39:41.583Z,102677.70
2019-03-20T01:42:11.480Z,102666.93
2019-03-20T01:44:41.606Z,102667.73
2019-03-20T01:47:11.163Z,102665.02
2019-03-20T01:49:41.639Z,102671.21
2019-03-20T01:52:12.609Z,102680.13
2019-03-20T01:54:42.264Z,102679.30
2019-03-20T01:57:26.821Z,102683.78
2019-03-20T02:00:09.228Z,102683.78
2019-03-20T02:02:38.869Z,102682.50
2019-03-20T02:08:10.217Z,102677.12
2019-03-20T02:10:51.298Z,102679.31
2019-03-20T02:13:16.250Z,102678.88
2019-03-20T02:15:45.624Z,102675.41
2019-03-20T02:18:15.284Z,102676.41
2019-03-20T02:20:44.657Z,102677.37
2019-03-20T02:23:14.342Z,102672.94
2019-03-20T02:25:43.712Z,102675.21
2019-03-20T02:28:13.671Z,102670.41
2019-03-20T02:30:43.561Z,102681.17
2019-03-20T02:33:12.912Z,102683.50
2019-03-20T02:35:51.291Z,102684.97
2019-03-20T02:38:32.713Z,102691.73
2019-03-20T02:41:02.302Z,102682.88
2019-03-20T02:43:31.908Z,102677.25
2019-03-20T02:46:01.313Z,102678.28
2019-03-20T02:48:49.817Z,102677.98
2019-03-20T02:51:19.787Z,102665.22
2019-03-20T02:53:49.441Z,102674.12
2019-03-20T02:56:18.810Z,102672.83
2019-03-20T02:58:48.468Z,102663.97
2019-03-20T03:01:17.844Z,102664.41
2019-03-20T03:03:47.641Z,102665.35
2019-03-20T03:06:17.029Z,102666.25
2019-03-20T03:08:46.701Z,102665.39
2019-03-20T03:11:16.388Z,102670.68
2019-03-20T03:13:46.050Z,102664.92
2019-03-20T03:16:15.494Z,102672.48
2019-03-20T03:18:45.159Z,102673.81
2019-03-20T03:21:14.795Z,102670.64
2019-03-20T03:23:44.449Z,102667.50
2019-03-20T03:26:14.096Z,102667.89
2019-03-20T03:28:43.785Z,102668.78
2019-03-20T03:31:13.505Z,102667.89
2019-03-20T03:33:43.163Z,102672.39
2019-03-20T03:36:21.264Z,102676.44
2019-03-20T03:41:59.001Z,102673.64
2019-03-20T03:44:28.568Z,102678.22
2019-03-20T03:46:57.916Z,102674.78
2019-03-20T03:49:27.550Z,102669.45
2019-03-20T03:51:56.914Z,102660.60
2019-03-20T03:54:26.595Z,102663.39
2019-03-20T03:56:55.945Z,102669.69
2019-03-20T03:59:25.664Z,102665.30
2019-03-20T04:01:55.023Z,102671.96
2019-03-20T04:04:24.628Z,102671.89
2019-03-20T04:06:54.308Z,102668.72
2019-03-20T04:09:23.668Z,102672.23
2019-03-20T04:11:53.145Z,102673.53
2019-03-20T04:14:22.649Z,102673.88
2019-03-20T04:16:52.037Z,102669.38
2019-03-20T04:19:21.666Z,102679.44
2019-03-20T04:21:51.334Z,102681.07
2019-03-20T04:24:20.813Z,102683.70
2019-03-20T04:26:50.149Z,102676.13
2019-03-20T04:29:19.651Z,102674.29
2019-03-20T04:31:49.027Z,102668.48
2019-03-20T04:34:21.241Z,102673.30
2019-03-20T04:36:50.931Z,102676.87
2019-03-20T04:39:20.290Z,102678.25
2019-03-20T04:44:31.799Z,102691.48
2019-03-20T04:47:01.158Z,102683.92
2019-03-20T04:49:30.979Z,102685.72
2019-03-20T04:52:00.657Z,102691.13
2019-03-20T04:54:30.078Z,102688.05
2019-03-20T04:56:59.680Z,102688.94
2019-03-20T04:59:29.057Z,102683.14
2019-03-20T05:01:58.951Z,102683.14
2019-03-20T05:04:28.629Z,102699.05
2019-03-20T05:06:59.977Z,102684.86
2019-03-20T05:09:29.360Z,102689.72
2019-03-20T05:11:58.896Z,102688.89
2019-03-20T05:14:28.581Z,102692.89
2019-03-20T05:16:58.035Z,102695.13
2019-03-20T05:19:27.693Z,102704.03
2019-03-20T05:21:57.062Z,102703.68
2019-03-20T05:24:26.723Z,102699.29
2019-03-20T05:26:56.094Z,102702.91
2019-03-20T05:29:25.799Z,102706.08
2019-03-20T05:38:12.286Z,102715.83
2019-03-20T05:43:44.116Z,102715.31
2019-03-20T05:46:13.494Z,102713.08
2019-03-20T05:48:43.184Z,102720.21
2019-03-20T05:51:12.911Z,102715.36
2019-03-20T05:53:42.254Z,102725.55
2019-03-20T05:56:11.840Z,102728.24
2019-03-20T05:58:42.174Z,102735.73
2019-03-20T06:01:12.147Z,102728.13
2019-03-20T06:03:42.258Z,102729.81
2019-03-20T06:06:13.247Z,102732.75
2019-03-20T06:08:43.145Z,102728.66
2019-03-20T06:11:12.810Z,102730.34
2019-03-20T06:13:42.222Z,102736.49
2019-03-20T06:16:11.904Z,102729.39
2019-03-20T06:18:42.273Z,102728.41
2019-03-20T06:21:11.902Z,102733.57
2019-03-20T06:23:42.210Z,102738.25
2019-03-20T06:26:12.117Z,102743.84
2019-03-20T06:28:42.301Z,102740.91
2019-03-20T06:31:11.980Z,102735.75
2019-03-20T06:33:42.422Z,102736.34
2019-03-20T06:36:11.974Z,102730.38
2019-03-20T06:38:42.315Z,102735.08
2019-03-20T06:41:11.934Z,102743.22
2019-03-20T06:43:42.274Z,102745.95
2019-03-20T06:46:11.927Z,102746.14
2019-03-20T06:48:42.441Z,102744.98
2019-03-20T06:51:12.055Z,102738.99
2019-03-20T06:54:00.538Z,102740.36
2019-03-20T06:56:29.973Z,102742.67
2019-03-20T06:59:38.603Z,102748.05
2019-03-20T07:02:07.953Z,102740.21
2019-03-20T07:05:08.360Z,102739.00
2019-03-20T07:11:19.096Z,102743.23
2019-03-20T07:13:50.642Z,102753.62
2019-03-20T07:16:39.120Z,102750.70
2019-03-20T07:19:08.492Z,102753.11
2019-03-20T07:21:38.077Z,102754.95
2019-03-20T07:24:07.447Z,102759.72
2019-03-20T07:26:37.086Z,102754.37
2019-03-20T07:29:06.457Z,102751.56
2019-03-20T07:31:36.113Z,102760.77
2019-03-20T07:34:05.479Z,102766.11
2019-03-20T07:36:35.118Z,102770.32
2019-03-20T07:39:44.511Z,102765.78
2019-03-20T07:42:14.103Z,102767.48
2019-03-20T07:44:43.745Z,102770.84
2019-03-20T07:47:13.123Z,102768.84
2019-03-20T07:49:42.527Z,102772.02
2019-03-20T07:52:12.199Z,102771.42
2019-03-20T07:54:42.455Z,102783.52
2019-03-20T07:57:24.763Z,102799.77
2019-03-20T07:59:54.693Z,102799.77
2019-03-20T08:02:43.484Z,102789.98
2019-03-20T08:05:13.351Z,102789.98
2019-03-20T08:07:43.059Z,102794.00
2019-03-20T08:13:33.664Z,102784.98
2019-03-20T08:18:51.746Z,102793.59
2019-03-20T08:21:21.230Z,102805.21
2019-03-20T08:23:52.682Z,102802.07
2019-03-20T08:26:22.213Z,102812.61
2019-03-20T08:28:51.889Z,102812.61
2019-03-20T08:31:40.681Z,102811.78
2019-03-20T08:34:22.456Z,102800.67
2019-03-20T08:36:52.129Z,102800.67
2019-03-20T08:39:21.508Z,102811.88
2019-03-20T08:41:51.197Z,102800.03
2019-03-20T08:44:20.575Z,102795.85
2019-03-20T08:46:50.532Z,102800.58
2019-03-20T08:49:39.250Z,102807.03
2019-03-20T08:52:08.614Z,102807.03
2019-03-20T08:54:57.624Z,102801.78
2019-03-20T08:57:39.454Z,102801.66
2019-03-20T09:00:49.166Z,102801.66
2019-03-20T09:03:18.553Z,102806.83
2019-03-20T09:05:48.573Z,102801.10
2019-03-20T09:08:28.469Z,102805.36
2019-03-20T09:10:54.620Z,102804.02
2019-03-20T09:13:43.833Z,102792.48
2019-03-20T09:16:25.457Z,102794.17
2019-03-20T09:18:55.137Z,102794.17
2019-03-20T09:21:24.501Z,102795.73
2019-03-20T09:23:53.928Z,102799.48
2019-03-20T09:26:23.434Z,102794.46
2019-03-20T09:28:52.813Z,102800.45
2019-03-20T09:31:22.269Z,102807.36
2019-03-20T09:33:51.861Z,102799.03
2019-03-20T09:36:21.303Z,102797.52
2019-03-20T09:38:50.990Z,102786.29
2019-03-20T09:41:20.435Z,102791.27
2019-03-20T09:43:49.825Z,102790.42
2019-03-20T09:46:19.367Z,102791.67
2019-03-20T09:48:48.753Z,102791.73
2019-03-20T09:51:19.832Z,102799.63
2019-03-20T09:53:49.608Z,102787.72
2019-03-20T09:56:18.971Z,102787.73
2019-03-20T09:58:50.270Z,102793.72
2019-03-20T10:01:19.631Z,102790.02
2019-03-20T10:03:49.339Z,102787.55
2019-03-20T10:06:18.696Z,102799.55
2019-03-20T10:08:54.056Z,102789.39
2019-03-20T10:11:38.824Z,102788.81
2019-03-20T10:14:08.505Z,102792.30
2019-03-20T10:16:37.867Z,102792.56
2019-03-20T10:19:07.445Z,102796.14
2019-03-20T10:24:25.452Z,102801.88
2019-03-20T10:26:55.117Z,102800.17
2019-03-20T10:29:24.642Z,102797.07
2019-03-20T10:31:54.296Z,102791.06
2019-03-20T10:34:23.681Z,102785.97
2019-03-20T10:36:53.049Z,102786.05
2019-03-20T10:39:22.569Z,102794.77
2019-03-20T10:41:52.235Z,102796.59
2019-03-20T10:44:21.612Z,102798.66
2019-03-20T10:46:50.990Z,102801.34
2019-03-20T10:49:20.521Z,102804.50
2019-03-20T10:51:50.206Z,102814.98
2019-03-20T10:54:27.921Z,102807.45
2019-03-20T10:56:57.868Z,102829.20
2019-03-20T10:59:27.232Z,102817.27
2019-03-20T11:01:56.923Z,102820.61
2019-03-20T11:04:26.609Z,102822.14
2019-03-20T11:06:55.993Z,102831.59
2019-03-20T11:09:25.594Z,102834.61
2019-03-20T11:11:54.942Z,102836.19
2019-03-20T11:14:24.625Z,102823.63
2019-03-20T11:16:54.175Z,102835.31
2019-03-20T11:19:34.977Z,102828.42
2019-03-20T11:22:04.776Z,102838.89
2019-03-20T11:24:34.149Z,102840.02
2019-03-20T11:27:03.571Z,102834.21
2019-03-20T11:29:32.944Z,102837.72
2019-03-20T11:32:02.619Z,102843.81
2019-03-20T11:34:31.994Z,102843.95
2019-03-20T11:37:01.578Z,102845.25
2019-03-20T11:39:30.969Z,102847.32
2019-03-20T11:42:00.990Z,102842.86
2019-03-20T11:44:30.355Z,102847.81
2019-03-20T11:46:59.777Z,102847.09
2019-03-20T11:49:29.150Z,102845.27
2019-03-20T11:51:58.634Z,102833.73
2019-03-20T11:54:27.995Z,102843.84
2019-03-20T11:56:57.993Z,102857.18
2019-03-20T11:59:27.353Z,102860.99
2019-03-20T12:01:58.987Z,102860.99
2019-03-20T12:04:30.720Z,102857.98
2019-03-20T12:07:00.382Z,102858.13
2019-03-20T12:09:40.486Z,102856.38
2019-03-20T12:12:19.912Z,102856.17
2019-03-20T12:14:49.292Z,102862.06
2019-03-20T12:17:20.283Z,102850.17
2019-03-20T12:19:56.032Z,102859.48
2019-03-20T12:22:25.697Z,102849.30
2019-03-20T12:24:55.387Z,102849.30
2019-03-20T12:27:25.007Z,102853.20
2019-03-20T12:29:55.032Z,102844.70
2019-03-20T12:32:43.750Z,102842.00
2019-03-20T12:35:34.536Z,102842.00
2019-03-20T12:38:13.640Z,102841.44
2019-03-20T12:40:40.786Z,102851.22
2019-03-20T12:43:10.145Z,102840.27
2019-03-20T12:46:19.919Z,102855.99
2019-03-20T12:48:49.280Z,102851.94
2019-03-20T12:51:18.899Z,102851.94
2019-03-20T12:53:48.963Z,102863.63
2019-03-20T12:56:18.373Z,102868.48
2019-03-20T12:58:48.074Z,102864.76
2019-03-20T13:01:17.764Z,102865.22
2019-03-20T13:03:47.177Z,102867.20
2019-03-20T13:06:16.902Z,102870.64
2019-03-20T13:08:48.212Z,102873.89
2019-03-20T13:11:17.595Z,102867.37
2019-03-20T13:13:47.121Z,102864.35
2019-03-20T13:16:16.802Z,102866.66
2019-03-20T13:18:46.259Z,102873.96
2019-03-20T13:21:16.253Z,102870.09
2019-03-20T13:23:46.266Z,102864.74
2019-03-20T13:26:35.084Z,102861.38
2019-03-20T13:29:04.447Z,102859.08
2019-03-20T13:31:33.905Z,102861.78
2019-03-20T13:34:03.545Z,102862.67
2019-03-20T13:36:32.922Z,102869.20
2019-03-20T13:39:02.302Z,102866.72
2019-03-20T13:41:33.293Z,102862.34
2019-03-20T13:44:02.977Z,102868.95
2019-03-20T13:46:32.358Z,102863.41
2019-03-20T13:49:02.052Z,102865.78
2019-03-20T13:51:31.421Z,102862.44
2019-03-20T13:54:01.339Z,102861.64
2019-03-20T13:56:31.000Z,102863.48
2019-03-20T13:59:00.375Z,102856.72
2019-03-20T14:01:30.036Z,102856.64
2019-03-20T14:03:59.416Z,102864.28
2019-03-20T14:06:29.041Z,102860.28
2019-03-20T14:08:58.732Z,102854.22
2019-03-20T14:11:28.491Z,102857.47
2019-03-20T14:13:58.141Z,102854.77
2019-03-20T14:16:27.522Z,102849.99
2019-03-20T14:18:57.538Z,102847.03
2019-03-20T14:21:27.169Z,102842.12
2019-03-20T14:23:56.540Z,102841.22
2019-03-20T14:26:26.188Z,102834.56
2019-03-20T14:28:55.555Z,102840.59
2019-03-20T14:31:25.074Z,102832.06
2019-03-20T14:33:54.642Z,102832.13
2019-03-20T14:36:24.475Z,102828.34
2019-03-20T14:38:54.154Z,102831.44
2019-03-20T14:41:23.534Z,102830.95
2019-03-20T14:43:53.203Z,102823.33
2019-03-20T14:46:22.571Z,102823.33
2019-03-20T14:48:52.243Z,102829.14
2019-03-20T14:51:21.613Z,102838.11
2019-03-20T14:53:51.452Z,102832.70
2019-03-20T14:56:20.822Z,102835.80
2019-03-20T14:58:50.529Z,102835.88
2019-03-20T15:01:20.104Z,102833.27
2019-03-20T15:03:49.490Z,102834.86
2019-03-20T15:06:19.410Z,102827.30
2019-03-20T15:08:49.372Z,102829.83
2019-03-20T15:11:18.747Z,102837.31
2019-03-20T15:13:48.421Z,102831.91
2019-03-20T15:16:18.075Z,102829.03
2019-03-20T15:18:47.532Z,102833.98
2019-03-20T15:21:17.194Z,102825.63
2019-03-20T15:23:46.854Z,102821.98
2019-03-20T15:26:16.279Z,102818.38
2019-03-20T15:28:45.661Z,102823.48
2019-03-20T15:31:15.242Z,102817.67
2019-03-20T15:33:44.863Z,102809.42
2019-03-20T15:36:14.234Z,102810.27
2019-03-20T15:38:43.685Z,102809.73
2019-03-20T15:41:14.045Z,102805.53
2019-03-20T15:44:03.571Z,102800.98
2019-03-20T15:46:33.210Z,102801.93
2019-03-20T15:49:02.598Z,102809.58
2019-03-20T15:51:32.270Z,102804.88
2019-03-20T15:54:01.642Z,102810.70
2019-03-20T15:56:31.302Z,102819.57
2019-03-20T15:59:00.683Z,102816.10
2019-03-20T16:01:30.343Z,102819.75
2019-03-20T16:03:59.720Z,102819.09
2019-03-20T16:06:29.286Z,102819.81
2019-03-20T16:08:58.964Z,102825.06
2019-03-20T16:11:28.441Z,102832.32
2019-03-20T16:16:46.483Z,102838.91
2019-03-20T16:19:15.859Z,102836.61
2019-03-20T16:21:45.533Z,102835.41
2019-03-20T16:24:14.891Z,102836.36
2019-03-20T16:26:44.562Z,102844.01
2019-03-20T16:29:14.232Z,102848.92
2019-03-20T16:31:43.865Z,102844.64
2019-03-20T16:34:13.366Z,102833.58
2019-03-20T16:36:43.788Z,102835.56
2019-03-20T16:39:13.322Z,102839.21
2019-03-20T16:41:43.700Z,102832.14
2019-03-20T16:44:13.052Z,102835.70
2019-03-20T16:46:44.758Z,102831.66
2019-03-20T16:49:34.293Z,102841.05
2019-03-20T16:52:03.920Z,102843.01
2019-03-20T16:54:33.427Z,102836.08
2019-03-20T16:57:02.823Z,102841.22
2019-03-20T16:59:45.038Z,102842.90
2019-03-20T17:02:14.593Z,102842.90
2019-03-20T17:04:44.002Z,102852.98
2019-03-20T17:07:15.280Z,102846.37
2019-03-20T17:09:45.038Z,102849.25
2019-03-20T17:12:14.436Z,102845.33
2019-03-20T17:14:43.943Z,102849.75
2019-03-20T17:17:13.457Z,102844.66
2019-03-20T17:19:43.804Z,102847.13
2019-03-20T17:22:13.432Z,102849.56
2019-03-20T17:24:43.944Z,102847.48
2019-03-20T17:27:13.444Z,102853.78
2019-03-20T17:29:43.804Z,102863.15
2019-03-20T17:32:13.766Z,102858.78
2019-03-20T17:34:43.918Z,102865.17
2019-03-20T17:37:13.561Z,102866.69
2019-03-20T17:39:43.880Z,102874.52
2019-03-20T17:42:13.569Z,102866.64
2019-03-20T17:44:43.991Z,102871.66
2019-03-20T17:47:13.641Z,102870.32
2019-03-20T17:49:43.963Z,102877.52
2019-03-20T17:52:13.581Z,102884.08
2019-03-20T17:54:43.893Z,102875.03
2019-03-20T17:57:13.503Z,102885.02
2019-03-20T17:59:43.851Z,102894.95
2019-03-20T18:02:23.274Z,102899.22
2019-03-20T18:05:13.107Z,102902.62
2019-03-20T18:07:44.109Z,102897.48
2019-03-20T18:10:33.316Z,102906.52
2019-03-20T18:13:02.686Z,102905.98
2019-03-20T18:15:32.412Z,102906.47
2019-03-20T18:18:01.791Z,102905.98
2019-03-20T18:20:31.156Z,102911.18
2019-03-20T18:23:02.486Z,102912.20
2019-03-20T18:25:31.849Z,102912.73
2019-03-20T18:28:01.536Z,102912.41
2019-03-20T18:30:50.234Z,102912.58
2019-03-20T18:33:19.623Z,102917.03
2019-03-20T18:35:49.211Z,102916.54
2019-03-20T18:38:30.605Z,102912.50
2019-03-20T18:41:00.017Z,102912.50
2019-03-20T18:43:29.646Z,102918.09
2019-03-20T18:45:59.310Z,102909.47
2019-03-20T18:48:28.692Z,102912.21
2019-03-20T18:50:58.351Z,102919.77
2019-03-20T18:53:28.091Z,102921.94
2019-03-20T18:55:58.035Z,102922.88
2019-03-20T18:58:27.722Z,102925.49
2019-03-20T19:00:57.112Z,102928.06
2019-03-20T19:04:05.925Z,102930.27
2019-03-20T19:06:54.957Z,102920.30
2019-03-20T19:09:24.624Z,102920.30
2019-03-20T19:11:54.314Z,102930.97
2019-03-20T19:14:23.834Z,102927.81
2019-03-20T19:16:55.138Z,102935.42
2019-03-20T19:19:24.354Z,102936.89
2019-03-20T19:21:53.802Z,102932.80
2019-03-20T19:24:23.436Z,102928.68
2019-03-20T19:26:53.110Z,102927.61
2019-03-20T19:29:22.782Z,102929.58
2019-03-20T19:31:52.166Z,102929.62
2019-03-20T19:34:21.822Z,102934.69
2019-03-20T19:36:51.211Z,102939.75
2019-03-20T19:39:20.801Z,102940.69
2019-03-20T19:41:50.178Z,102935.30
2019-03-20T19:44:19.847Z,102922.91
2019-03-20T19:46:51.151Z,102922.91
2019-03-20T19:49:20.905Z,102931.33
2019-03-20T19:51:50.286Z,102937.13
2019-03-20T19:54:19.802Z,102933.42
2019-03-20T19:56:49.479Z,102937.05
2019-03-20T19:59:18.939Z,102927.61
2019-03-20T20:01:48.326Z,102934.77
2019-03-20T20:04:17.962Z,102940.61
2019-03-20T20:06:47.653Z,102934.81
2019-03-20T20:09:17.470Z,102938.86
2019-03-20T20:11:47.110Z,102931.86
2019-03-20T20:14:35.813Z,102915.15
2019-03-20T20:17:05.207Z,102932.73
2019-03-20T20:19:34.781Z,102944.53
2019-03-20T20:22:04.149Z,102941.02
2019-03-20T20:24:33.829Z,102944.13
2019-03-20T20:27:03.218Z,102940.03
2019-03-20T20:29:32.581Z,102942.16
2019-03-20T20:32:02.262Z,102936.32
2019-03-20T20:34:32.211Z,102932.73
2019-03-20T20:37:01.877Z,102937.26
2019-03-20T20:39:31.258Z,102944.94
2019-03-20T20:42:01.246Z,102940.89
2019-03-20T20:44:30.607Z,102952.95
2019-03-20T20:47:00.644Z,102950.21
2019-03-20T20:49:32.183Z,102953.31
2019-03-20T20:52:20.480Z,102958.71
2019-03-20T20:54:49.953Z,102953.31
2019-03-20T20:57:19.655Z,102957.41
2019-03-20T20:59:49.310Z,102953.15
2019-03-20T21:02:18.878Z,102953.15
2019-03-20T21:07:44.460Z,102946.77
2019-03-20T21:10:33.422Z,102947.97
2019-03-20T21:13:03.000Z,102943.59
2019-03-20T21:15:51.776Z,102946.36
2019-03-20T21:18:59.873Z,102938.69
2019-03-20T21:21:29.253Z,102936.39
2019-03-20T21:24:37.935Z,102948.05
2019-03-20T21:30:48.030Z,102958.02
2019-03-20T21:33:59.123Z,102967.33
2019-03-20T21:37:09.286Z,102967.33
2019-03-20T21:39:39.315Z,102966.80
2019-03-20T21:42:47.701Z,102968.93
2019-03-20T21:45:55.803Z,102973.46
2019-03-20T21:48:25.184Z,102982.91
2019-03-20T21:51:14.261Z,102981.55
2019-03-20T21:54:23.225Z,102982.41
2019-03-20T22:03:15.123Z,102985.59
2019-03-20T22:06:24.911Z,102980.61
2019-03-20T22:08:54.424Z,102978.04
2019-03-20T22:12:02.532Z,102982.98
2019-03-20T22:14:32.212Z,102977.43
2019-03-20T22:17:50.074Z,102987.28
2019-03-20T22:23:50.481Z,102987.16
2019-03-20T22:26:58.756Z,102992.06
2019-03-20T22:29:28.407Z,102991.25
2019-03-20T22:32:36.514Z,102988.17
2019-03-20T22:35:44.586Z,102993.57
2019-03-20T22:38:54.369Z,102994.91
2019-03-20T22:42:02.501Z,102986.83
2019-03-20T22:44:43.225Z,102992.22
2019-03-20T22:47:51.317Z,102988.22
2019-03-20T22:54:02.120Z,102998.06
2019-03-20T22:57:10.270Z,102995.90
2019-03-20T22:59:39.632Z,102988.22
2019-03-20T23:02:49.391Z,102997.20
2019-03-20T23:05:18.760Z,102995.37
2019-03-20T23:07:48.442Z,102992.27
2019-03-20T23:13:52.411Z,102998.55
2019-03-20T23:16:33.981Z,102993.77
2019-03-20T23:19:03.361Z,102993.77
2019-03-20T23:21:32.721Z,102987.48
2019-03-20T23:24:02.804Z,102988.98
2019-03-20T23:26:32.317Z,102989.44
2019-03-20T23:29:03.803Z,102986.07
2019-03-20T23:31:33.360Z,102985.86
2019-03-20T23:34:02.993Z,102979.69
2019-03-20T23:36:32.507Z,102979.77
2019-03-20T23:39:02.298Z,102981.98
2019-03-20T23:41:33.373Z,102981.90
2019-03-20T23:44:02.761Z,102976.51
2019-03-20T23:46:32.366Z,102969.84
2019-03-20T23:49:22.254Z,102970.33
2019-03-20T23:52:11.286Z,102968.98
2019-03-20T23:55:00.000Z,102969.92
2019-03-20T23:57:29.552Z,102967.68
2019-03-20T23:59:58.938Z,102976.17
